sensor_id;sensor_type;location;lat;lon;timestamp;temperature;humidity
61912;DHT22;49973;52.084;5.412;2023-06-26T00:00:19;24.10;91.60
61912;DHT22;49973;52.084;5.412;2023-06-26T00:02:49;24.00;91.70
61912;DHT22;49973;52.084;5.412;2023-06-26T00:05:20;24.00;91.70
61912;DHT22;49973;52.084;5.412;2023-06-26T00:07:49;24.00;91.80
61912;DHT22;49973;52.084;5.412;2023-06-26T00:10:18;23.90;91.90
61912;DHT22;49973;52.084;5.412;2023-06-26T00:12:47;23.90;91.90
61912;DHT22;49973;52.084;5.412;2023-06-26T00:15:17;23.80;92.00
61912;DHT22;49973;52.084;5.412;2023-06-26T00:17:46;23.70;92.00
61912;DHT22;49973;52.084;5.412;2023-06-26T00:20:15;23.60;92.00
61912;DHT22;49973;52.084;5.412;2023-06-26T00:22:47;23.60;92.10
61912;DHT22;49973;52.084;5.412;2023-06-26T00:25:18;23.50;92.10
61912;DHT22;49973;52.084;5.412;2023-06-26T00:27:47;23.50;92.20
61912;DHT22;49973;52.084;5.412;2023-06-26T00:30:16;23.40;92.20
61912;DHT22;49973;52.084;5.412;2023-06-26T00:32:45;23.40;92.30
61912;DHT22;49973;52.084;5.412;2023-06-26T00:35:14;23.40;92.30
61912;DHT22;49973;52.084;5.412;2023-06-26T00:37:44;23.40;92.30
61912;DHT22;49973;52.084;5.412;2023-06-26T00:40:15;23.40;92.40
61912;DHT22;49973;52.084;5.412;2023-06-26T00:42:44;23.40;92.50
61912;DHT22;49973;52.084;5.412;2023-06-26T00:45:14;23.40;92.50
61912;DHT22;49973;52.084;5.412;2023-06-26T00:47:53;23.40;92.60
61912;DHT22;49973;52.084;5.412;2023-06-26T00:50:24;23.40;92.60
61912;DHT22;49973;52.084;5.412;2023-06-26T00:52:54;23.40;92.70
61912;DHT22;49973;52.084;5.412;2023-06-26T00:55:29;23.40;92.70
61912;DHT22;49973;52.084;5.412;2023-06-26T00:57:58;23.20;92.70
61912;DHT22;49973;52.084;5.412;2023-06-26T01:00:28;23.30;92.80
61912;DHT22;49973;52.084;5.412;2023-06-26T01:02:58;23.30;92.90
61912;DHT22;49973;52.084;5.412;2023-06-26T01:05:28;23.30;92.90
61912;DHT22;49973;52.084;5.412;2023-06-26T01:07:58;23.20;93.00
61912;DHT22;49973;52.084;5.412;2023-06-26T01:10:31;23.20;93.00
61912;DHT22;49973;52.084;5.412;2023-06-26T01:13:00;23.20;93.10
61912;DHT22;49973;52.084;5.412;2023-06-26T01:15:29;23.20;93.10
61912;DHT22;49973;52.084;5.412;2023-06-26T01:17:58;23.20;93.20
61912;DHT22;49973;52.084;5.412;2023-06-26T01:20:36;23.20;93.20
61912;DHT22;49973;52.084;5.412;2023-06-26T01:23:23;23.20;93.30
61912;DHT22;49973;52.084;5.412;2023-06-26T01:26:13;23.30;93.40
61912;DHT22;49973;52.084;5.412;2023-06-26T01:28:43;23.30;93.40
61912;DHT22;49973;52.084;5.412;2023-06-26T01:31:13;23.30;93.40
61912;DHT22;49973;52.084;5.412;2023-06-26T01:33:43;23.40;93.60
61912;DHT22;49973;52.084;5.412;2023-06-26T01:36:12;23.40;93.60
61912;DHT22;49973;52.084;5.412;2023-06-26T01:38:41;23.40;94.00
61912;DHT22;49973;52.084;5.412;2023-06-26T01:41:10;23.40;93.70
61912;DHT22;49973;52.084;5.412;2023-06-26T01:43:56;23.30;93.70
61912;DHT22;49973;52.084;5.412;2023-06-26T01:46:39;23.40;93.80
61912;DHT22;49973;52.084;5.412;2023-06-26T01:49:21;23.30;93.80
61912;DHT22;49973;52.084;5.412;2023-06-26T01:51:58;23.30;93.80
61912;DHT22;49973;52.084;5.412;2023-06-26T01:54:30;23.20;93.80
61912;DHT22;49973;52.084;5.412;2023-06-26T01:57:02;23.20;93.90
61912;DHT22;49973;52.084;5.412;2023-06-26T01:59:32;23.20;93.90
61912;DHT22;49973;52.084;5.412;2023-06-26T02:02:02;23.10;93.90
61912;DHT22;49973;52.084;5.412;2023-06-26T02:04:31;23.10;94.00
61912;DHT22;49973;52.084;5.412;2023-06-26T02:07:00;23.00;94.00
61912;DHT22;49973;52.084;5.412;2023-06-26T02:09:32;23.00;94.00
61912;DHT22;49973;52.084;5.412;2023-06-26T02:12:01;23.00;94.10
61912;DHT22;49973;52.084;5.412;2023-06-26T02:14:32;22.90;94.00
61912;DHT22;49973;52.084;5.412;2023-06-26T02:17:01;22.90;94.10
61912;DHT22;49973;52.084;5.412;2023-06-26T02:19:30;22.80;94.10
61912;DHT22;49973;52.084;5.412;2023-06-26T02:21:58;22.80;94.20
61912;DHT22;49973;52.084;5.412;2023-06-26T02:24:27;22.70;94.20
61912;DHT22;49973;52.084;5.412;2023-06-26T02:26:58;22.70;94.20
61912;DHT22;49973;52.084;5.412;2023-06-26T02:29:27;22.60;94.20
61912;DHT22;49973;52.084;5.412;2023-06-26T02:31:57;22.60;94.30
61912;DHT22;49973;52.084;5.412;2023-06-26T02:34:26;22.50;94.30
61912;DHT22;49973;52.084;5.412;2023-06-26T02:36:54;22.50;94.30
61912;DHT22;49973;52.084;5.412;2023-06-26T02:39:24;22.40;94.40
61912;DHT22;49973;52.084;5.412;2023-06-26T02:41:53;22.40;94.40
61912;DHT22;49973;52.084;5.412;2023-06-26T02:44:24;22.20;94.40
61912;DHT22;49973;52.084;5.412;2023-06-26T02:46:52;22.30;94.50
61912;DHT22;49973;52.084;5.412;2023-06-26T02:49:23;22.30;94.50
61912;DHT22;49973;52.084;5.412;2023-06-26T02:51:51;22.10;94.50
61912;DHT22;49973;52.084;5.412;2023-06-26T02:54:25;22.20;94.60
61912;DHT22;49973;52.084;5.412;2023-06-26T02:56:59;22.20;94.70
61912;DHT22;49973;52.084;5.412;2023-06-26T02:59:30;22.10;94.70
61912;DHT22;49973;52.084;5.412;2023-06-26T03:01:59;22.10;95.10
61912;DHT22;49973;52.084;5.412;2023-06-26T03:04:34;22.10;94.80
61912;DHT22;49973;52.084;5.412;2023-06-26T03:07:06;22.00;94.90
61912;DHT22;49973;52.084;5.412;2023-06-26T03:09:36;22.00;94.80
61912;DHT22;49973;52.084;5.412;2023-06-26T03:12:06;22.00;95.00
61912;DHT22;49973;52.084;5.412;2023-06-26T03:14:35;21.90;95.00
61912;DHT22;49973;52.084;5.412;2023-06-26T03:17:04;21.90;95.10
61912;DHT22;49973;52.084;5.412;2023-06-26T03:19:37;21.90;95.10
61912;DHT22;49973;52.084;5.412;2023-06-26T03:22:28;21.90;95.50
61912;DHT22;49973;52.084;5.412;2023-06-26T03:24:57;21.90;95.20
61912;DHT22;49973;52.084;5.412;2023-06-26T03:27:26;21.80;95.20
61912;DHT22;49973;52.084;5.412;2023-06-26T03:29:55;21.80;95.30
61912;DHT22;49973;52.084;5.412;2023-06-26T03:32:24;21.80;95.40
61912;DHT22;49973;52.084;5.412;2023-06-26T03:34:54;21.80;95.50
61912;DHT22;49973;52.084;5.412;2023-06-26T03:37:23;21.70;95.50
61912;DHT22;49973;52.084;5.412;2023-06-26T03:39:52;21.80;95.50
61912;DHT22;49973;52.084;5.412;2023-06-26T03:42:22;21.80;95.60
61912;DHT22;49973;52.084;5.412;2023-06-26T03:44:51;21.70;95.70
61912;DHT22;49973;52.084;5.412;2023-06-26T03:47:19;21.70;95.70
61912;DHT22;49973;52.084;5.412;2023-06-26T03:49:48;21.70;95.80
61912;DHT22;49973;52.084;5.412;2023-06-26T03:52:19;21.70;95.90
61912;DHT22;49973;52.084;5.412;2023-06-26T03:54:48;21.60;95.90
61912;DHT22;49973;52.084;5.412;2023-06-26T03:57:17;21.70;96.00
61912;DHT22;49973;52.084;5.412;2023-06-26T03:59:47;21.70;96.10
61912;DHT22;49973;52.084;5.412;2023-06-26T04:02:16;21.60;96.10
61912;DHT22;49973;52.084;5.412;2023-06-26T04:04:45;21.60;96.20
61912;DHT22;49973;52.084;5.412;2023-06-26T04:07:14;21.70;96.30
61912;DHT22;49973;52.084;5.412;2023-06-26T04:09:44;21.60;96.30
61912;DHT22;49973;52.084;5.412;2023-06-26T04:12:13;21.60;96.40
61912;DHT22;49973;52.084;5.412;2023-06-26T04:14:42;21.60;96.40
61912;DHT22;49973;52.084;5.412;2023-06-26T04:17:11;21.50;96.40
61912;DHT22;49973;52.084;5.412;2023-06-26T04:19:39;21.50;96.50
61912;DHT22;49973;52.084;5.412;2023-06-26T04:22:08;21.50;96.60
61912;DHT22;49973;52.084;5.412;2023-06-26T04:24:37;21.60;96.70
61912;DHT22;49973;52.084;5.412;2023-06-26T04:27:07;21.50;96.70
61912;DHT22;49973;52.084;5.412;2023-06-26T04:29:36;21.60;96.80
61912;DHT22;49973;52.084;5.412;2023-06-26T04:32:05;21.60;96.80
61912;DHT22;49973;52.084;5.412;2023-06-26T04:34:34;21.60;96.90
61912;DHT22;49973;52.084;5.412;2023-06-26T04:37:08;21.60;96.90
61912;DHT22;49973;52.084;5.412;2023-06-26T04:39:37;21.60;97.00
61912;DHT22;49973;52.084;5.412;2023-06-26T04:42:08;21.60;97.00
61912;DHT22;49973;52.084;5.412;2023-06-26T04:44:38;21.60;97.10
61912;DHT22;49973;52.084;5.412;2023-06-26T04:47:08;21.60;97.10
61912;DHT22;49973;52.084;5.412;2023-06-26T04:49:37;21.60;97.20
61912;DHT22;49973;52.084;5.412;2023-06-26T04:52:06;21.70;97.30
61912;DHT22;49973;52.084;5.412;2023-06-26T04:54:35;21.70;97.40
61912;DHT22;49973;52.084;5.412;2023-06-26T04:57:04;21.80;97.40
61912;DHT22;49973;52.084;5.412;2023-06-26T04:59:34;21.70;97.50
61912;DHT22;49973;52.084;5.412;2023-06-26T05:02:03;21.80;97.50
61912;DHT22;49973;52.084;5.412;2023-06-26T05:04:32;21.80;97.60
61912;DHT22;49973;52.084;5.412;2023-06-26T05:07:01;21.80;97.60
61912;DHT22;49973;52.084;5.412;2023-06-26T05:09:30;21.80;97.60
61912;DHT22;49973;52.084;5.412;2023-06-26T05:11:59;21.80;97.70
61912;DHT22;49973;52.084;5.412;2023-06-26T05:14:28;21.80;97.80
61912;DHT22;49973;52.084;5.412;2023-06-26T05:16:58;21.80;97.80
61912;DHT22;49973;52.084;5.412;2023-06-26T05:19:27;21.80;97.80
61912;DHT22;49973;52.084;5.412;2023-06-26T05:21:56;21.80;97.90
61912;DHT22;49973;52.084;5.412;2023-06-26T05:24:25;21.80;98.00
61912;DHT22;49973;52.084;5.412;2023-06-26T05:26:54;21.90;98.10
61912;DHT22;49973;52.084;5.412;2023-06-26T05:29:24;21.90;98.10
61912;DHT22;49973;52.084;5.412;2023-06-26T05:31:53;22.00;98.20
61912;DHT22;49973;52.084;5.412;2023-06-26T05:34:26;22.00;98.30
61912;DHT22;49973;52.084;5.412;2023-06-26T05:36:58;22.00;98.30
61912;DHT22;49973;52.084;5.412;2023-06-26T05:39:27;22.00;98.40
61912;DHT22;49973;52.084;5.412;2023-06-26T05:41:57;22.10;98.40
61912;DHT22;49973;52.084;5.412;2023-06-26T05:44:25;22.10;98.50
61912;DHT22;49973;52.084;5.412;2023-06-26T05:46:54;22.10;98.60
61912;DHT22;49973;52.084;5.412;2023-06-26T05:49:23;22.20;98.70
61912;DHT22;49973;52.084;5.412;2023-06-26T05:51:54;22.20;98.70
61912;DHT22;49973;52.084;5.412;2023-06-26T05:54:24;22.30;98.90
61912;DHT22;49973;52.084;5.412;2023-06-26T05:56:56;22.40;99.00
61912;DHT22;49973;52.084;5.412;2023-06-26T05:59:27;22.50;99.30
61912;DHT22;49973;52.084;5.412;2023-06-26T06:01:56;22.60;99.90
61912;DHT22;49973;52.084;5.412;2023-06-26T06:04:25;22.70;99.90
61912;DHT22;49973;52.084;5.412;2023-06-26T06:06:55;22.90;99.90
61912;DHT22;49973;52.084;5.412;2023-06-26T06:09:24;23.20;99.90
61912;DHT22;49973;52.084;5.412;2023-06-26T06:11:53;23.60;99.90
61912;DHT22;49973;52.084;5.412;2023-06-26T06:14:21;24.40;99.90
61912;DHT22;49973;52.084;5.412;2023-06-26T06:16:50;25.30;99.90
61912;DHT22;49973;52.084;5.412;2023-06-26T06:19:19;26.00;99.90
61912;DHT22;49973;52.084;5.412;2023-06-26T06:21:47;26.40;99.90
61912;DHT22;49973;52.084;5.412;2023-06-26T06:24:18;26.60;99.90
61912;DHT22;49973;52.084;5.412;2023-06-26T06:26:47;26.80;99.90
61912;DHT22;49973;52.084;5.412;2023-06-26T06:29:15;26.80;99.90
61912;DHT22;49973;52.084;5.412;2023-06-26T06:31:46;26.90;99.90
61912;DHT22;49973;52.084;5.412;2023-06-26T06:34:15;26.80;99.90
61912;DHT22;49973;52.084;5.412;2023-06-26T06:36:43;26.60;99.90
61912;DHT22;49973;52.084;5.412;2023-06-26T06:39:12;26.40;99.90
61912;DHT22;49973;52.084;5.412;2023-06-26T06:41:43;26.20;99.90
61912;DHT22;49973;52.084;5.412;2023-06-26T06:44:11;26.00;99.90
61912;DHT22;49973;52.084;5.412;2023-06-26T06:46:40;25.70;99.90
61912;DHT22;49973;52.084;5.412;2023-06-26T06:49:09;25.50;99.90
61912;DHT22;49973;52.084;5.412;2023-06-26T06:51:38;25.30;99.90
61912;DHT22;49973;52.084;5.412;2023-06-26T06:54:07;25.10;99.90
61912;DHT22;49973;52.084;5.412;2023-06-26T06:56:36;24.80;99.90
61912;DHT22;49973;52.084;5.412;2023-06-26T06:59:06;24.60;99.90
61912;DHT22;49973;52.084;5.412;2023-06-26T07:01:35;24.20;99.90
61912;DHT22;49973;52.084;5.412;2023-06-26T07:04:04;24.00;99.90
61912;DHT22;49973;52.084;5.412;2023-06-26T07:06:33;23.90;99.90
61912;DHT22;49973;52.084;5.412;2023-06-26T07:09:05;24.00;99.90
61912;DHT22;49973;52.084;5.412;2023-06-26T07:11:34;23.90;99.90
61912;DHT22;49973;52.084;5.412;2023-06-26T07:14:03;23.90;99.90
61912;DHT22;49973;52.084;5.412;2023-06-26T07:16:33;23.70;99.90
61912;DHT22;49973;52.084;5.412;2023-06-26T07:19:02;23.70;99.90
61912;DHT22;49973;52.084;5.412;2023-06-26T07:21:31;23.70;99.90
61912;DHT22;49973;52.084;5.412;2023-06-26T07:24:00;23.80;99.90
61912;DHT22;49973;52.084;5.412;2023-06-26T07:26:29;24.00;99.90
61912;DHT22;49973;52.084;5.412;2023-06-26T07:29:11;24.10;99.90
61912;DHT22;49973;52.084;5.412;2023-06-26T07:31:42;24.20;99.90
61912;DHT22;49973;52.084;5.412;2023-06-26T07:34:13;24.20;99.90
61912;DHT22;49973;52.084;5.412;2023-06-26T07:36:42;24.00;99.90
61912;DHT22;49973;52.084;5.412;2023-06-26T07:39:11;23.80;99.90
61912;DHT22;49973;52.084;5.412;2023-06-26T07:41:47;23.60;99.90
61912;DHT22;49973;52.084;5.412;2023-06-26T07:44:16;23.50;99.90
61912;DHT22;49973;52.084;5.412;2023-06-26T07:46:47;23.30;99.90
61912;DHT22;49973;52.084;5.412;2023-06-26T07:49:16;23.20;99.90
61912;DHT22;49973;52.084;5.412;2023-06-26T07:51:46;23.20;99.90
61912;DHT22;49973;52.084;5.412;2023-06-26T07:54:15;23.20;99.90
61912;DHT22;49973;52.084;5.412;2023-06-26T07:56:55;23.40;99.90
61912;DHT22;49973;52.084;5.412;2023-06-26T07:59:26;23.60;99.90
61912;DHT22;49973;52.084;5.412;2023-06-26T08:01:57;23.80;99.90
61912;DHT22;49973;52.084;5.412;2023-06-26T08:04:28;24.00;99.90
61912;DHT22;49973;52.084;5.412;2023-06-26T08:06:58;24.10;99.90
61912;DHT22;49973;52.084;5.412;2023-06-26T08:09:29;24.20;99.90
61912;DHT22;49973;52.084;5.412;2023-06-26T08:11:58;24.10;99.90
61912;DHT22;49973;52.084;5.412;2023-06-26T08:14:27;24.10;99.90
61912;DHT22;49973;52.084;5.412;2023-06-26T08:16:57;24.10;99.90
61912;DHT22;49973;52.084;5.412;2023-06-26T08:19:27;24.10;99.90
61912;DHT22;49973;52.084;5.412;2023-06-26T08:21:56;24.10;99.90
61912;DHT22;49973;52.084;5.412;2023-06-26T08:24:25;24.10;99.90
61912;DHT22;49973;52.084;5.412;2023-06-26T08:26:54;24.20;99.90
61912;DHT22;49973;52.084;5.412;2023-06-26T08:29:23;24.20;99.90
61912;DHT22;49973;52.084;5.412;2023-06-26T08:31:52;24.20;99.90
61912;DHT22;49973;52.084;5.412;2023-06-26T08:34:22;24.00;99.90
61912;DHT22;49973;52.084;5.412;2023-06-26T08:36:51;24.00;99.90
61912;DHT22;49973;52.084;5.412;2023-06-26T08:39:20;24.10;99.90
61912;DHT22;49973;52.084;5.412;2023-06-26T08:41:49;24.30;99.90
61912;DHT22;49973;52.084;5.412;2023-06-26T08:44:18;24.60;99.90
61912;DHT22;49973;52.084;5.412;2023-06-26T08:46:52;24.90;99.90
61912;DHT22;49973;52.084;5.412;2023-06-26T08:49:26;25.10;99.90
61912;DHT22;49973;52.084;5.412;2023-06-26T08:52:03;25.20;99.90
61912;DHT22;49973;52.084;5.412;2023-06-26T08:54:38;25.30;99.90
61912;DHT22;49973;52.084;5.412;2023-06-26T08:57:09;25.30;99.90
61912;DHT22;49973;52.084;5.412;2023-06-26T08:59:41;25.10;99.90
61912;DHT22;49973;52.084;5.412;2023-06-26T09:02:10;24.90;99.90
61912;DHT22;49973;52.084;5.412;2023-06-26T09:04:41;24.60;99.90
61912;DHT22;49973;52.084;5.412;2023-06-26T09:07:10;24.40;99.90
61912;DHT22;49973;52.084;5.412;2023-06-26T09:09:39;24.40;99.90
61912;DHT22;49973;52.084;5.412;2023-06-26T09:12:09;24.50;99.90
61912;DHT22;49973;52.084;5.412;2023-06-26T09:14:39;24.40;99.90
61912;DHT22;49973;52.084;5.412;2023-06-26T09:17:08;24.40;99.90
61912;DHT22;49973;52.084;5.412;2023-06-26T09:19:37;24.30;99.90
61912;DHT22;49973;52.084;5.412;2023-06-26T09:22:13;24.30;99.90
61912;DHT22;49973;52.084;5.412;2023-06-26T09:24:43;24.40;99.90
61912;DHT22;49973;52.084;5.412;2023-06-26T09:27:12;24.50;99.90
61912;DHT22;49973;52.084;5.412;2023-06-26T09:29:41;24.80;99.90
61912;DHT22;49973;52.084;5.412;2023-06-26T09:32:12;25.10;99.90
61912;DHT22;49973;52.084;5.412;2023-06-26T09:34:43;25.20;99.90
61912;DHT22;49973;52.084;5.412;2023-06-26T09:37:14;25.20;99.90
61912;DHT22;49973;52.084;5.412;2023-06-26T09:39:44;25.20;99.90
61912;DHT22;49973;52.084;5.412;2023-06-26T09:42:14;25.20;99.90
61912;DHT22;49973;52.084;5.412;2023-06-26T09:44:44;25.30;99.90
61912;DHT22;49973;52.084;5.412;2023-06-26T09:47:16;25.50;99.90
61912;DHT22;49973;52.084;5.412;2023-06-26T09:49:45;25.60;99.90
61912;DHT22;49973;52.084;5.412;2023-06-26T09:52:16;25.70;99.90
61912;DHT22;49973;52.084;5.412;2023-06-26T09:54:46;25.60;99.90
61912;DHT22;49973;52.084;5.412;2023-06-26T09:57:17;25.50;99.90
61912;DHT22;49973;52.084;5.412;2023-06-26T09:59:46;25.30;99.90
61912;DHT22;49973;52.084;5.412;2023-06-26T10:02:15;25.40;99.90
61912;DHT22;49973;52.084;5.412;2023-06-26T10:04:45;25.30;99.90
61912;DHT22;49973;52.084;5.412;2023-06-26T10:07:16;25.20;99.90
61912;DHT22;49973;52.084;5.412;2023-06-26T10:09:47;25.10;99.90
61912;DHT22;49973;52.084;5.412;2023-06-26T10:12:19;25.10;99.90
61912;DHT22;49973;52.084;5.412;2023-06-26T10:14:48;25.10;99.90
61912;DHT22;49973;52.084;5.412;2023-06-26T10:17:19;25.00;99.90
61912;DHT22;49973;52.084;5.412;2023-06-26T10:19:50;25.10;99.90
61912;DHT22;49973;52.084;5.412;2023-06-26T10:22:27;25.10;99.90
61912;DHT22;49973;52.084;5.412;2023-06-26T10:24:59;25.00;99.90
61912;DHT22;49973;52.084;5.412;2023-06-26T10:27:33;24.90;99.90
61912;DHT22;49973;52.084;5.412;2023-06-26T10:30:08;24.90;99.90
61912;DHT22;49973;52.084;5.412;2023-06-26T10:32:38;25.10;99.90
61912;DHT22;49973;52.084;5.412;2023-06-26T10:35:09;25.40;99.90
61912;DHT22;49973;52.084;5.412;2023-06-26T10:37:44;25.60;99.90
61912;DHT22;49973;52.084;5.412;2023-06-26T10:40:14;25.60;99.90
61912;DHT22;49973;52.084;5.412;2023-06-26T10:42:44;25.60;99.90
61912;DHT22;49973;52.084;5.412;2023-06-26T10:45:16;25.50;99.60
61912;DHT22;49973;52.084;5.412;2023-06-26T10:47:46;25.30;99.50
61912;DHT22;49973;52.084;5.412;2023-06-26T10:50:20;25.30;99.70
61912;DHT22;49973;52.084;5.412;2023-06-26T10:53:12;25.50;99.80
61912;DHT22;49973;52.084;5.412;2023-06-26T10:55:47;25.70;99.70
61912;DHT22;49973;52.084;5.412;2023-06-26T10:58:34;25.50;99.40
61912;DHT22;49973;52.084;5.412;2023-06-26T11:01:22;25.50;99.40
61912;DHT22;49973;52.084;5.412;2023-06-26T11:04:03;25.60;99.50
61912;DHT22;49973;52.084;5.412;2023-06-26T11:06:34;25.70;99.60
61912;DHT22;49973;52.084;5.412;2023-06-26T11:09:09;25.80;99.50
61912;DHT22;49973;52.084;5.412;2023-06-26T11:11:58;26.00;99.50
61912;DHT22;49973;52.084;5.412;2023-06-26T11:14:32;26.30;99.70
61912;DHT22;49973;52.084;5.412;2023-06-26T11:17:05;26.60;99.70
61912;DHT22;49973;52.084;5.412;2023-06-26T11:19:34;26.80;99.60
61912;DHT22;49973;52.084;5.412;2023-06-26T11:22:05;27.00;99.40
61912;DHT22;49973;52.084;5.412;2023-06-26T11:24:36;27.10;99.40
61912;DHT22;49973;52.084;5.412;2023-06-26T11:27:05;27.20;99.40
61912;DHT22;49973;52.084;5.412;2023-06-26T11:29:34;27.40;99.30
61912;DHT22;49973;52.084;5.412;2023-06-26T11:32:05;27.50;99.20
61912;DHT22;49973;52.084;5.412;2023-06-26T11:34:34;27.60;99.10
61912;DHT22;49973;52.084;5.412;2023-06-26T11:37:05;27.70;99.00
61912;DHT22;49973;52.084;5.412;2023-06-26T11:39:37;27.70;98.80
61912;DHT22;49973;52.084;5.412;2023-06-26T11:42:06;27.60;98.40
61912;DHT22;49973;52.084;5.412;2023-06-26T11:44:40;27.30;98.30
61912;DHT22;49973;52.084;5.412;2023-06-26T11:47:15;27.20;98.20
61912;DHT22;49973;52.084;5.412;2023-06-26T11:49:44;27.10;98.10
61912;DHT22;49973;52.084;5.412;2023-06-26T11:52:14;27.00;98.00
61912;DHT22;49973;52.084;5.412;2023-06-26T11:54:45;26.90;97.90
61912;DHT22;49973;52.084;5.412;2023-06-26T11:57:14;26.90;98.00
61912;DHT22;49973;52.084;5.412;2023-06-26T11:59:50;27.00;98.00
61912;DHT22;49973;52.084;5.412;2023-06-26T12:02:21;27.00;97.90
61912;DHT22;49973;52.084;5.412;2023-06-26T12:04:50;26.90;97.60
61912;DHT22;49973;52.084;5.412;2023-06-26T12:07:19;26.70;97.40
61912;DHT22;49973;52.084;5.412;2023-06-26T12:09:51;26.60;97.40
61912;DHT22;49973;52.084;5.412;2023-06-26T12:12:21;26.50;97.20
61912;DHT22;49973;52.084;5.412;2023-06-26T12:14:51;26.40;97.20
61912;DHT22;49973;52.084;5.412;2023-06-26T12:17:23;26.40;97.10
61912;DHT22;49973;52.084;5.412;2023-06-26T12:19:52;26.40;97.20
61912;DHT22;49973;52.084;5.412;2023-06-26T12:22:21;26.50;97.10
61912;DHT22;49973;52.084;5.412;2023-06-26T12:24:51;26.60;97.00
61912;DHT22;49973;52.084;5.412;2023-06-26T12:27:25;26.60;96.80
61912;DHT22;49973;52.084;5.412;2023-06-26T12:29:54;26.40;96.50
61912;DHT22;49973;52.084;5.412;2023-06-26T12:32:24;26.30;96.40
61912;DHT22;49973;52.084;5.412;2023-06-26T12:34:56;26.20;96.40
61912;DHT22;49973;52.084;5.412;2023-06-26T12:37:25;26.20;96.40
61912;DHT22;49973;52.084;5.412;2023-06-26T12:39:57;26.30;96.50
61912;DHT22;49973;52.084;5.412;2023-06-26T12:42:27;26.40;96.50
61912;DHT22;49973;52.084;5.412;2023-06-26T12:44:56;26.50;96.50
61912;DHT22;49973;52.084;5.412;2023-06-26T12:47:26;26.50;96.40
61912;DHT22;49973;52.084;5.412;2023-06-26T12:49:55;26.40;96.30
61912;DHT22;49973;52.084;5.412;2023-06-26T12:52:25;26.30;96.10
61912;DHT22;49973;52.084;5.412;2023-06-26T12:54:56;26.20;96.00
61912;DHT22;49973;52.084;5.412;2023-06-26T12:57:25;26.10;95.90
61912;DHT22;49973;52.084;5.412;2023-06-26T12:59:53;26.00;95.90
61912;DHT22;49973;52.084;5.412;2023-06-26T13:02:22;26.00;95.90
61912;DHT22;49973;52.084;5.412;2023-06-26T13:04:51;26.00;95.80
61912;DHT22;49973;52.084;5.412;2023-06-26T13:07:20;26.00;95.80
61912;DHT22;49973;52.084;5.412;2023-06-26T13:09:52;26.00;95.80
61912;DHT22;49973;52.084;5.412;2023-06-26T13:12:22;26.00;95.70
61912;DHT22;49973;52.084;5.412;2023-06-26T13:14:51;26.00;95.60
61912;DHT22;49973;52.084;5.412;2023-06-26T13:17:20;26.00;95.50
61912;DHT22;49973;52.084;5.412;2023-06-26T13:19:49;26.00;95.40
61912;DHT22;49973;52.084;5.412;2023-06-26T13:22:18;25.90;95.30
61912;DHT22;49973;52.084;5.412;2023-06-26T13:24:46;25.90;95.20
61912;DHT22;49973;52.084;5.412;2023-06-26T13:27:15;25.90;95.10
61912;DHT22;49973;52.084;5.412;2023-06-26T13:29:45;25.80;95.10
61912;DHT22;49973;52.084;5.412;2023-06-26T13:32:14;25.70;94.90
61912;DHT22;49973;52.084;5.412;2023-06-26T13:34:43;25.70;94.80
61912;DHT22;49973;52.084;5.412;2023-06-26T13:37:12;25.60;94.80
61912;DHT22;49973;52.084;5.412;2023-06-26T13:39:41;25.50;95.00
61912;DHT22;49973;52.084;5.412;2023-06-26T13:42:17;25.50;94.50
61912;DHT22;49973;52.084;5.412;2023-06-26T13:44:48;25.40;94.40
61912;DHT22;49973;52.084;5.412;2023-06-26T13:47:30;25.30;94.40
61912;DHT22;49973;52.084;5.412;2023-06-26T13:50:02;25.40;94.50
61912;DHT22;49973;52.084;5.412;2023-06-26T13:52:30;25.50;94.50
61912;DHT22;49973;52.084;5.412;2023-06-26T13:54:59;25.60;94.40
61912;DHT22;49973;52.084;5.412;2023-06-26T13:57:32;25.40;94.20
61912;DHT22;49973;52.084;5.412;2023-06-26T14:00:03;25.30;94.10
61912;DHT22;49973;52.084;5.412;2023-06-26T14:02:38;25.10;93.90
61912;DHT22;49973;52.084;5.412;2023-06-26T14:05:08;25.00;93.80
61912;DHT22;49973;52.084;5.412;2023-06-26T14:07:38;24.90;93.80
61912;DHT22;49973;52.084;5.412;2023-06-26T14:10:08;24.70;93.60
61912;DHT22;49973;52.084;5.412;2023-06-26T14:12:37;24.50;93.50
61912;DHT22;49973;52.084;5.412;2023-06-26T14:15:08;24.50;93.50
61912;DHT22;49973;52.084;5.412;2023-06-26T14:17:37;24.50;93.60
61912;DHT22;49973;52.084;5.412;2023-06-26T14:20:08;24.60;93.60
61912;DHT22;49973;52.084;5.412;2023-06-26T14:22:40;24.60;93.60
61912;DHT22;49973;52.084;5.412;2023-06-26T14:25:10;24.70;93.70
61912;DHT22;49973;52.084;5.412;2023-06-26T14:27:39;24.70;93.60
61912;DHT22;49973;52.084;5.412;2023-06-26T14:30:11;24.80;93.90
61912;DHT22;49973;52.084;5.412;2023-06-26T14:32:40;24.80;93.50
61912;DHT22;49973;52.084;5.412;2023-06-26T14:35:09;24.80;93.40
61912;DHT22;49973;52.084;5.412;2023-06-26T14:37:38;24.80;93.40
61912;DHT22;49973;52.084;5.412;2023-06-26T14:40:09;24.80;93.40
61912;DHT22;49973;52.084;5.412;2023-06-26T14:42:39;24.80;93.40
61912;DHT22;49973;52.084;5.412;2023-06-26T14:45:12;24.80;93.20
61912;DHT22;49973;52.084;5.412;2023-06-26T14:47:41;24.70;93.00
61912;DHT22;49973;52.084;5.412;2023-06-26T14:50:10;24.60;92.90
61912;DHT22;49973;52.084;5.412;2023-06-26T14:52:40;24.50;92.80
61912;DHT22;49973;52.084;5.412;2023-06-26T14:55:09;24.40;92.70
61912;DHT22;49973;52.084;5.412;2023-06-26T14:57:38;24.10;92.50
61912;DHT22;49973;52.084;5.412;2023-06-26T15:00:08;24.00;92.50
61912;DHT22;49973;52.084;5.412;2023-06-26T15:02:39;23.90;92.50
61912;DHT22;49973;52.084;5.412;2023-06-26T15:05:09;23.90;92.60
61912;DHT22;49973;52.084;5.412;2023-06-26T15:07:38;24.00;92.70
61912;DHT22;49973;52.084;5.412;2023-06-26T15:10:07;24.10;92.70
61912;DHT22;49973;52.084;5.412;2023-06-26T15:12:37;24.20;93.10
61912;DHT22;49973;52.084;5.412;2023-06-26T15:15:07;24.30;92.70
61912;DHT22;49973;52.084;5.412;2023-06-26T15:17:36;24.40;92.70
61912;DHT22;49973;52.084;5.412;2023-06-26T15:20:07;24.30;92.50
61912;DHT22;49973;52.084;5.412;2023-06-26T15:22:36;24.20;92.40
61912;DHT22;49973;52.084;5.412;2023-06-26T15:25:07;24.10;92.40
61912;DHT22;49973;52.084;5.412;2023-06-26T15:27:36;24.00;92.40
61912;DHT22;49973;52.084;5.412;2023-06-26T15:30:06;24.00;92.30
61912;DHT22;49973;52.084;5.412;2023-06-26T15:32:35;24.00;92.20
61912;DHT22;49973;52.084;5.412;2023-06-26T15:35:08;24.00;92.20
61912;DHT22;49973;52.084;5.412;2023-06-26T15:37:37;23.90;92.10
61912;DHT22;49973;52.084;5.412;2023-06-26T15:40:08;23.90;92.10
61912;DHT22;49973;52.084;5.412;2023-06-26T15:42:45;23.80;92.00
61912;DHT22;49973;52.084;5.412;2023-06-26T15:45:15;23.70;92.00
61912;DHT22;49973;52.084;5.412;2023-06-26T15:47:45;23.60;91.90
61912;DHT22;49973;52.084;5.412;2023-06-26T15:50:17;23.50;91.70